KANW/ANW METAR and TAF weather

Enter ICAO airport designator
Station Type Date Time Source
KANW METAR 2018/01/22 11:35 UTC NOAA

KANW 221135Z AUTO 34019G23KT M03/M04 A2983 RMK AO2 T10331037 PWINO


Station Type Date Time Source
KANW Decoded METAR 2018/01/22 11:35 UTC NOAA

Ainsworth Municipal, NE, United States (KANW) 42-35N 100-00W
Jan 22, 2018 - 06:35 AM EST / 2018.01.22 1135 UTC
Wind: from the NNW (340 degrees) at 22 MPH (19 KT) gusting to 26 MPH (23 KT):0
Temperature: 26.1 F (-3.3 C)
Windchill: 12 F (-11 C):1
Dew Point: 25.3 F (-3.7 C)
Relative Humidity: 97%
Pressure (altimeter): 29.83 in. Hg (1010 hPa)
ob: KANW 221135Z AUTO 34019G23KT M03/M04 A2983 RMK AO2 T10331037 PWINO
cycle: 11

Station Type Date Time Source
KANW TAF UTC NOAA

Error!


Example: see airport list